Time;durP1;ratioP1;P1;durP2;ratioP2;P2;SDS_P1;SDS_P2;PMS_P1;PMS_P2;Temp;Humidity;BMP_temperature;BMP_pressure;BME280_temperature;BME280_humidity;BME280_pressure;Samples;Min_cycle;Max_cycle;Signal;HPM_P1;HPM_P2
2022/12/02 00:01:14;;;;;;;39.65;20.25;;;3.10;99.90;;;;;;5097056;28;20074;-82
2022/12/02 00:03:40;;;;;;;42.40;20.25;;;3.00;99.90;;;;;;5101781;27;20068;-82
2022/12/02 00:06:24;;;;;;;40.75;19.65;;;3.00;99.90;;;;;;5110422;28;20088;-81
2022/12/02 00:08:50;;;;;;;41.15;19.70;;;3.00;99.90;;;;;;5101075;28;20047;-81
2022/12/02 00:11:27;;;;;;;41.85;18.48;;;3.00;99.90;;;;;;5093451;27;20041;-82
2022/12/02 00:13:56;;;;;;;37.03;19.08;;;3.00;99.90;;;;;;5096754;28;20054;-81
2022/12/02 00:16:24;;;;;;;39.85;18.98;;;3.00;99.90;;;;;;5111083;28;20114;-82
2022/12/02 00:18:50;;;;;;;44.10;20.20;;;3.10;99.90;;;;;;5105628;28;20036;-81
2022/12/02 00:21:16;;;;;;;41.60;19.40;;;3.00;99.90;;;;;;5099946;28;20027;-82
2022/12/02 00:23:42;;;;;;;34.95;18.45;;;3.00;99.90;;;;;;5093458;28;20443;-82
2022/12/02 00:26:08;;;;;;;38.13;18.77;;;3.00;99.90;;;;;;5112057;28;20031;-81
2022/12/02 00:28:33;;;;;;;39.22;18.88;;;3.10;99.90;;;;;;5093846;28;20044;-81
2022/12/02 00:30:59;;;;;;;37.95;19.38;;;3.10;99.90;;;;;;5099582;28;20127;-83
2022/12/02 00:33:24;;;;;;;42.47;19.20;;;3.00;99.90;;;;;;5098376;28;20067;-81
2022/12/02 00:35:50;;;;;;;38.38;19.15;;;3.10;99.90;;;;;;5098651;28;20048;-81
2022/12/02 00:38:15;;;;;;;40.78;19.42;;;3.00;99.90;;;;;;5110002;28;20097;-83
2022/12/02 00:40:41;;;;;;;41.70;20.33;;;3.00;99.90;;;;;;5096555;28;20046;-83
2022/12/02 00:48:35;;;;;;;39.50;20.05;;;3.00;99.90;;;;;;5104566;27;20508;-82
2022/12/02 00:51:00;;;;;;;40.75;19.05;;;3.00;99.90;;;;;;5084040;28;20040;-82
2022/12/02 00:53:26;;;;;;;42.50;20.20;;;3.10;99.90;;;;;;5101106;27;20058;-82
2022/12/02 00:55:51;;;;;;;39.47;19.00;;;3.00;99.90;;;;;;5113350;27;20043;-81
2022/12/02 00:58:17;;;;;;;39.78;19.63;;;3.00;99.90;;;;;;5112943;27;20035;-82
2022/12/02 01:00:42;;;;;;;38.13;19.48;;;3.00;99.90;;;;;;5107966;28;20047;-81
2022/12/02 01:03:08;;;;;;;37.15;18.20;;;3.00;99.90;;;;;;5094714;27;20484;-82
2022/12/02 01:05:34;;;;;;;40.13;19.58;;;3.00;99.90;;;;;;5112917;27;20031;-81
2022/12/02 01:07:59;;;;;;;38.35;19.15;;;3.00;99.90;;;;;;5112171;28;20046;-82
2022/12/02 01:10:25;;;;;;;32.35;17.42;;;3.00;99.90;;;;;;5100038;28;20071;-83
2022/12/02 01:12:50;;;;;;;33.40;17.08;;;3.00;99.90;;;;;;5083082;28;20118;-81
2022/12/02 01:15:16;;;;;;;34.38;16.70;;;3.00;99.90;;;;;;5090999;27;20046;-82
2022/12/02 01:17:41;;;;;;;34.83;17.63;;;3.00;99.90;;;;;;5111227;27;20057;-81
2022/12/02 01:20:07;;;;;;;34.28;16.90;;;3.00;99.90;;;;;;5120068;27;20042;-81
2022/12/02 01:22:33;;;;;;;35.05;16.42;;;3.00;99.90;;;;;;5102392;28;20039;-83
2022/12/02 01:24:59;;;;;;;34.72;16.80;;;3.00;99.90;;;;;;5099560;28;20011;-83
2022/12/02 01:27:24;;;;;;;34.28;17.00;;;3.00;99.90;;;;;;5118627;27;20411;-81
2022/12/02 01:29:49;;;;;;;34.92;16.95;;;3.00;99.90;;;;;;5098925;27;20126;-81
2022/12/02 01:32:16;;;;;;;35.33;16.17;;;3.00;99.90;;;;;;5112253;27;20412;-82
2022/12/02 01:34:42;;;;;;;35.15;16.30;;;3.10;99.90;;;;;;5111856;28;20105;-82
2022/12/02 01:37:07;;;;;;;36.28;17.02;;;3.00;99.90;;;;;;5115225;27;20048;-81
2022/12/02 01:39:33;;;;;;;29.70;15.23;;;3.00;99.90;;;;;;5116127;28;20031;-82
2022/12/02 01:41:59;;;;;;;33.80;15.40;;;3.00;99.90;;;;;;5115911;27;20042;-80
2022/12/02 01:44:25;;;;;;;32.95;15.50;;;2.90;99.90;;;;;;5101879;28;20036;-80
2022/12/02 01:46:50;;;;;;;34.17;16.85;;;2.90;99.90;;;;;;5100132;28;20044;-83
2022/12/02 01:49:16;;;;;;;35.88;16.98;;;2.90;99.90;;;;;;5103465;27;20047;-81
2022/12/02 01:51:42;;;;;;;34.15;15.77;;;2.90;99.90;;;;;;5107652;28;20036;-82
2022/12/02 01:54:08;;;;;;;32.67;14.90;;;2.90;99.90;;;;;;5117490;27;20431;-81
2022/12/02 01:56:33;;;;;;;33.88;15.63;;;2.90;99.90;;;;;;5094547;28;20039;-80
2022/12/02 01:58:59;;;;;;;37.33;15.60;;;2.90;99.90;;;;;;5091207;28;20039;-83
2022/12/02 02:01:33;;;;;;;35.28;16.40;;;2.90;99.90;;;;;;5094627;27;20031;-82
2022/12/02 02:04:00;;;;;;;34.80;15.30;;;2.90;99.90;;;;;;5098631;27;20031;-83
2022/12/02 02:06:29;;;;;;;34.15;15.90;;;2.80;99.90;;;;;;5104800;27;20067;-83
2022/12/02 02:08:55;;;;;;;33.85;15.70;;;2.80;99.90;;;;;;5110298;27;20047;-81
2022/12/02 02:11:22;;;;;;;34.42;16.33;;;2.80;99.90;;;;;;5119551;27;20129;-82
2022/12/02 02:13:48;;;;;;;36.50;16.52;;;2.90;99.90;;;;;;5099885;28;20047;-81
2022/12/02 02:16:14;;;;;;;35.63;15.82;;;2.90;99.90;;;;;;5099312;28;20030;-80
2022/12/02 02:18:40;;;;;;;36.85;17.15;;;2.80;99.90;;;;;;5111980;27;20099;-80
2022/12/02 02:21:12;;;;;;;37.05;17.35;;;2.80;99.90;;;;;;5115756;27;20031;-82
2022/12/02 02:23:37;;;;;;;34.35;15.98;;;2.80;99.90;;;;;;5115721;27;20042;-81
2022/12/02 02:26:03;;;;;;;38.15;16.98;;;2.90;99.90;;;;;;5117820;27;20039;-81
2022/12/02 02:28:29;;;;;;;42.90;18.50;;;2.80;99.90;;;;;;5104430;28;20040;-81
2022/12/02 02:30:57;;;;;;;42.83;17.67;;;2.80;99.90;;;;;;5098835;28;20040;-81
2022/12/02 02:33:24;;;;;;;37.45;18.05;;;2.90;99.90;;;;;;5090103;27;20043;-82
2022/12/02 02:35:50;;;;;;;41.22;18.27;;;2.80;99.90;;;;;;5109855;28;20039;-82
2022/12/02 02:38:20;;;;;;;40.42;18.25;;;2.80;99.90;;;;;;5107788;27;20483;-81
2022/12/02 02:40:46;;;;;;;42.00;17.98;;;2.80;99.90;;;;;;5112300;27;20504;-83
2022/12/02 02:43:12;;;;;;;40.30;19.05;;;2.80;99.90;;;;;;5101165;28;20044;-83
2022/12/02 02:45:41;;;;;;;38.05;18.30;;;2.80;99.90;;;;;;5085814;27;20042;-82
2022/12/02 02:48:09;;;;;;;39.75;18.00;;;2.80;99.90;;;;;;5099387;27;20072;-81
2022/12/02 02:50:37;;;;;;;41.63;18.10;;;2.80;99.90;;;;;;5115201;27;20042;-81
2022/12/02 02:53:03;;;;;;;43.72;18.42;;;2.80;99.90;;;;;;5118985;27;20158;-84
2022/12/02 02:55:31;;;;;;;43.97;19.38;;;2.80;99.90;;;;;;5088489;27;20426;-82
2022/12/02 02:58:15;;;;;;;38.63;18.08;;;2.80;99.90;;;;;;5110975;28;20237;-83
2022/12/02 03:00:45;;;;;;;39.60;18.35;;;2.70;99.90;;;;;;5100985;28;20089;-82
2022/12/02 03:03:13;;;;;;;37.63;17.73;;;2.70;99.90;;;;;;5115499;27;20088;-81
2022/12/02 03:05:39;;;;;;;37.50;17.95;;;2.70;99.90;;;;;;5111526;27;20034;-81
2022/12/02 03:08:06;;;;;;;39.90;17.77;;;2.70;99.90;;;;;;5108481;28;20040;-81
2022/12/02 03:10:32;;;;;;;40.50;18.95;;;2.70;99.90;;;;;;5095128;28;20454;-80
2022/12/02 03:12:58;;;;;;;39.13;17.52;;;2.70;99.90;;;;;;5096497;28;20118;-81
2022/12/02 03:15:26;;;;;;;41.53;18.45;;;2.70;99.90;;;;;;5099836;27;20396;-84
2022/12/02 03:17:52;;;;;;;39.88;18.98;;;2.70;99.90;;;;;;5111051;27;20053;-80
2022/12/02 03:20:19;;;;;;;41.78;17.92;;;2.60;99.90;;;;;;5092946;27;20046;-81
2022/12/02 03:22:44;;;;;;;35.53;17.40;;;2.60;99.90;;;;;;5111995;27;20056;-79
2022/12/02 03:25:10;;;;;;;38.50;17.45;;;2.60;99.90;;;;;;5113457;28;20126;-81
2022/12/02 03:27:36;;;;;;;35.50;16.70;;;2.60;99.90;;;;;;5095874;28;20031;-81
2022/12/02 03:30:02;;;;;;;37.30;17.27;;;2.60;99.90;;;;;;5104114;27;20039;-82
2022/12/02 03:32:28;;;;;;;38.80;17.40;;;2.60;99.90;;;;;;5110321;27;20035;-82
2022/12/02 03:34:54;;;;;;;36.53;16.50;;;2.60;99.90;;;;;;5112012;27;20046;-81
2022/12/02 03:37:21;;;;;;;35.17;16.48;;;2.50;99.90;;;;;;5115224;27;20105;-81
2022/12/02 03:39:47;;;;;;;34.53;16.05;;;2.50;99.90;;;;;;5117053;27;20377;-82
2022/12/02 03:42:13;;;;;;;33.25;17.05;;;2.50;99.90;;;;;;5081558;28;20135;-82
2022/12/02 03:44:39;;;;;;;34.22;16.25;;;2.50;99.90;;;;;;5096204;28;20035;-81
2022/12/02 03:47:05;;;;;;;36.42;17.17;;;2.50;99.90;;;;;;5097005;28;20071;-82
2022/12/02 03:49:32;;;;;;;35.53;17.45;;;2.50;99.90;;;;;;5079504;28;20073;-81
2022/12/02 03:51:58;;;;;;;34.15;16.05;;;2.50;99.90;;;;;;5094906;28;20485;-83
2022/12/02 03:54:24;;;;;;;35.08;16.65;;;2.50;99.90;;;;;;5109548;27;20096;-80
2022/12/02 03:56:49;;;;;;;37.30;16.17;;;2.50;99.90;;;;;;5087318;28;20044;-81
2022/12/02 03:59:26;;;;;;;36.13;16.35;;;2.50;99.90;;;;;;5096016;28;20043;-82
2022/12/02 04:01:51;;;;;;;34.97;16.92;;;2.50;99.90;;;;;;5095820;28;20036;-81
2022/12/02 04:04:17;;;;;;;34.35;16.52;;;2.50;99.90;;;;;;5096957;28;20150;-82
2022/12/02 04:06:42;;;;;;;35.15;16.45;;;2.40;99.90;;;;;;5107532;28;20023;-81
2022/12/02 04:09:08;;;;;;;37.78;18.13;;;2.40;99.90;;;;;;5114693;27;20068;-83
2022/12/02 04:11:33;;;;;;;34.10;16.58;;;2.40;99.90;;;;;;5107599;27;20027;-83
2022/12/02 04:13:59;;;;;;;38.10;17.55;;;2.40;99.90;;;;;;5113457;28;20171;-80
2022/12/02 04:16:24;;;;;;;40.42;18.27;;;2.40;99.90;;;;;;5113929;28;20168;-83
2022/12/02 04:18:50;;;;;;;39.20;17.77;;;2.40;99.90;;;;;;5099404;28;20415;-82
2022/12/02 04:21:15;;;;;;;38.28;17.38;;;2.30;99.90;;;;;;5101204;28;20032;-82
2022/12/02 04:23:41;;;;;;;36.53;16.55;;;2.40;99.90;;;;;;5113156;28;20067;-82
2022/12/02 04:26:06;;;;;;;39.72;17.13;;;2.40;99.90;;;;;;5112603;28;20035;-82
2022/12/02 04:28:32;;;;;;;39.28;17.42;;;2.40;99.90;;;;;;5097201;28;20066;-82
2022/12/02 04:30:57;;;;;;;38.30;17.05;;;2.40;99.90;;;;;;5097390;28;20036;-83
2022/12/02 04:33:23;;;;;;;40.08;17.70;;;2.40;99.90;;;;;;5096697;28;20046;-83
2022/12/02 04:35:48;;;;;;;40.70;18.15;;;2.40;99.90;;;;;;5096191;28;20051;-81
2022/12/02 04:38:14;;;;;;;43.17;18.25;;;2.40;99.90;;;;;;5097998;28;20043;-82
2022/12/02 04:40:40;;;;;;;41.45;17.85;;;2.40;99.90;;;;;;5116588;28;20038;-81
2022/12/02 04:43:05;;;;;;;40.25;16.95;;;2.40;99.90;;;;;;5117130;28;20126;-81
2022/12/02 04:45:31;;;;;;;41.40;17.45;;;2.40;99.90;;;;;;5098791;28;20032;-83
2022/12/02 04:47:57;;;;;;;42.50;18.90;;;2.40;99.90;;;;;;5095978;28;20044;-82
2022/12/02 04:50:23;;;;;;;43.80;18.95;;;2.40;99.90;;;;;;5096599;28;20035;-80
2022/12/02 04:52:48;;;;;;;42.83;18.33;;;2.40;99.90;;;;;;5096076;28;20081;-82
2022/12/02 04:55:14;;;;;;;42.63;18.77;;;2.40;99.90;;;;;;5107390;28;20039;-82
2022/12/02 04:57:39;;;;;;;43.85;18.95;;;2.40;99.90;;;;;;5110089;28;20109;-81
2022/12/02 05:00:06;;;;;;;36.67;17.33;;;2.40;99.90;;;;;;5113255;28;20035;-81
2022/12/02 05:02:32;;;;;;;43.08;17.75;;;2.40;99.90;;;;;;5095862;28;20070;-82
2022/12/02 05:04:58;;;;;;;40.08;17.88;;;2.40;99.90;;;;;;5078733;28;20036;-80
2022/12/02 05:07:23;;;;;;;42.83;17.15;;;2.30;99.90;;;;;;5097142;28;20035;-80
2022/12/02 05:09:49;;;;;;;44.30;18.98;;;2.30;99.90;;;;;;5096514;28;20130;-81
2022/12/02 05:12:14;;;;;;;41.65;17.55;;;2.40;99.90;;;;;;5109996;28;20039;-81
2022/12/02 05:14:41;;;;;;;45.92;18.33;;;2.40;99.90;;;;;;5096224;28;20066;-81
2022/12/02 05:17:07;;;;;;;44.10;18.70;;;2.30;99.90;;;;;;5097748;28;20036;-81
2022/12/02 05:19:32;;;;;;;49.45;18.70;;;2.30;99.90;;;;;;5096360;28;20558;-81
2022/12/02 05:21:58;;;;;;;42.22;17.80;;;2.30;99.90;;;;;;5097775;28;20123;-82
2022/12/02 05:24:23;;;;;;;45.65;19.48;;;2.40;99.90;;;;;;5108109;28;20051;-82
2022/12/02 05:26:49;;;;;;;44.55;19.40;;;2.40;99.90;;;;;;5084710;28;20674;-81
2022/12/02 05:29:14;;;;;;;46.50;18.40;;;2.30;99.90;;;;;;5102357;28;20047;-82
2022/12/02 05:31:40;;;;;;;48.85;19.13;;;2.30;99.90;;;;;;5115088;28;20054;-82
2022/12/02 05:34:05;;;;;;;47.33;19.77;;;2.40;99.90;;;;;;5079574;28;20055;-81
2022/12/02 05:36:31;;;;;;;43.30;17.98;;;2.30;99.90;;;;;;5112672;27;20039;-82
2022/12/02 05:38:56;;;;;;;41.78;18.27;;;2.30;99.90;;;;;;5109876;28;20119;-82
2022/12/02 05:41:22;;;;;;;40.13;18.08;;;2.40;99.90;;;;;;5098615;28;20119;-82
2022/12/02 05:43:47;;;;;;;45.80;19.63;;;2.30;99.90;;;;;;5099988;28;20473;-82
2022/12/02 05:46:16;;;;;;;48.45;19.85;;;2.30;99.90;;;;;;5095334;27;20553;-81
2022/12/02 05:48:43;;;;;;;49.50;19.45;;;2.30;99.90;;;;;;5118197;27;20043;-81
2022/12/02 05:51:14;;;;;;;46.28;19.30;;;2.30;99.90;;;;;;5106202;27;20023;-81
2022/12/02 05:53:41;;;;;;;46.85;19.55;;;2.30;99.90;;;;;;5098572;28;20050;-82
2022/12/02 05:56:16;;;;;;;45.22;19.00;;;2.40;99.90;;;;;;5096437;27;20027;-81
2022/12/02 05:58:41;;;;;;;44.58;18.70;;;2.30;99.90;;;;;;5110317;27;20043;-81
2022/12/02 06:01:25;;;;;;;43.88;18.63;;;2.30;99.90;;;;;;5110654;27;20177;-81
2022/12/02 06:03:50;;;;;;;48.05;19.42;;;2.30;99.90;;;;;;5101433;27;20039;-82
2022/12/02 06:06:21;;;;;;;49.25;19.40;;;2.30;99.90;;;;;;5099418;28;20043;-81
2022/12/02 06:08:46;;;;;;;45.67;18.67;;;2.30;99.90;;;;;;5096526;28;20142;-84
2022/12/02 06:11:33;;;;;;;44.10;19.20;;;2.30;99.90;;;;;;5112684;27;20109;-81
2022/12/02 06:14:05;;;;;;;45.05;18.70;;;2.30;99.90;;;;;;5107068;28;20526;-82
2022/12/02 06:16:31;;;;;;;45.53;19.13;;;2.20;99.90;;;;;;5097440;28;20085;-82
2022/12/02 06:18:59;;;;;;;42.85;17.67;;;2.30;99.90;;;;;;5080501;28;20409;-81
2022/12/02 06:21:25;;;;;;;46.10;17.67;;;2.30;99.90;;;;;;5098110;27;20047;-83
2022/12/02 06:23:56;;;;;;;46.28;18.73;;;2.30;99.90;;;;;;5095969;27;20038;-82
2022/12/02 06:26:22;;;;;;;45.92;18.63;;;2.30;99.90;;;;;;5108145;27;20036;-82
2022/12/02 06:29:00;;;;;;;43.45;18.77;;;2.30;99.90;;;;;;5095589;28;20043;-83
2022/12/02 06:31:36;;;;;;;44.40;18.33;;;2.30;99.90;;;;;;5097103;28;20048;-82
2022/12/02 06:34:34;;;;;;;46.85;19.13;;;2.30;99.90;;;;;;5080647;28;20031;-83
2022/12/02 06:37:09;;;;;;;47.47;18.95;;;2.30;99.90;;;;;;5093015;28;20402;-82
2022/12/02 06:39:36;;;;;;;51.83;20.23;;;2.30;99.90;;;;;;5094070;27;20114;-83
2022/12/02 06:42:16;;;;;;;53.22;21.55;;;2.30;99.90;;;;;;5109130;28;20106;-82
2022/12/02 06:47:32;;;;;;;50.17;20.45;;;2.30;99.90;;;;;;5110043;27;20220;-81
2022/12/02 06:50:03;;;;;;;50.53;19.85;;;2.40;99.90;;;;;;5117502;27;20227;-83
2022/12/02 06:52:33;;;;;;;52.55;19.33;;;2.40;99.90;;;;;;5116727;27;20102;-81
2022/12/02 06:54:59;;;;;;;55.25;21.65;;;2.40;99.90;;;;;;5117984;27;20504;-80
2022/12/02 06:57:25;;;;;;;51.75;20.63;;;2.50;99.90;;;;;;5108765;27;20154;-81
2022/12/02 06:59:51;;;;;;;53.08;20.85;;;2.40;99.90;;;;;;5114786;27;20043;-81
2022/12/02 07:02:27;;;;;;;51.55;21.02;;;2.50;99.90;;;;;;5096914;28;20042;-82
2022/12/02 07:04:54;;;;;;;50.45;19.88;;;2.50;99.90;;;;;;5096472;28;20039;-82
2022/12/02 07:07:22;;;;;;;55.05;19.02;;;2.50;99.90;;;;;;5080395;28;20039;-81
2022/12/02 07:09:58;;;;;;;51.15;19.90;;;2.50;99.90;;;;;;5096380;28;20113;-82
2022/12/02 07:12:36;;;;;;;48.15;19.55;;;2.50;99.90;;;;;;5099602;27;20439;-82
2022/12/02 07:15:08;;;;;;;51.20;20.30;;;2.50;99.90;;;;;;5110883;27;20050;-83
2022/12/02 07:17:41;;;;;;;50.95;21.30;;;2.50;99.90;;;;;;5113501;27;20047;-83
2022/12/02 07:20:07;;;;;;;47.72;19.80;;;2.50;99.90;;;;;;5113373;27;20127;-83
2022/12/02 07:22:44;;;;;;;46.47;19.67;;;2.50;99.90;;;;;;5084153;28;20142;-82
2022/12/02 07:25:16;;;;;;;53.97;20.55;;;2.60;99.90;;;;;;5089478;27;20069;-80
2022/12/02 07:27:49;;;;;;;49.38;20.58;;;2.60;99.90;;;;;;5108637;27;20123;-82
2022/12/02 07:30:33;;;;;;;56.97;20.88;;;2.60;99.90;;;;;;5108214;28;20047;-83
2022/12/02 07:32:59;;;;;;;52.58;22.25;;;2.60;99.90;;;;;;5093313;27;20047;-82
2022/12/02 07:35:25;;;;;;;50.90;20.65;;;2.70;99.90;;;;;;5111479;27;20575;-80
2022/12/02 07:37:51;;;;;;;50.38;19.33;;;2.70;99.90;;;;;;5103888;27;20130;-82
2022/12/02 07:40:19;;;;;;;60.20;21.38;;;2.60;99.90;;;;;;5115205;27;20077;-81
2022/12/02 07:42:44;;;;;;;52.58;21.17;;;2.70;99.90;;;;;;5089194;27;20425;-83
2022/12/02 07:45:12;;;;;;;55.30;21.23;;;2.70;99.90;;;;;;5104032;28;20051;-82
2022/12/02 07:47:37;;;;;;;50.88;21.65;;;2.70;99.90;;;;;;5096975;28;20032;-82
2022/12/02 07:50:04;;;;;;;59.47;22.05;;;2.70;99.90;;;;;;5084786;28;20119;-80
2022/12/02 07:52:29;;;;;;;57.63;22.65;;;2.70;99.90;;;;;;5082812;28;20039;-83
2022/12/02 07:54:55;;;;;;;59.72;23.02;;;2.80;99.90;;;;;;5082228;27;20036;-81
2022/12/02 07:57:21;;;;;;;61.70;24.63;;;2.80;99.90;;;;;;5116082;27;20099;-82
2022/12/02 07:59:46;;;;;;;58.63;23.63;;;2.70;99.90;;;;;;5105759;28;20118;-81
2022/12/02 08:02:12;;;;;;;59.75;23.58;;;2.80;99.90;;;;;;5109950;28;20114;-83
2022/12/02 08:04:38;;;;;;;55.17;21.75;;;2.80;99.90;;;;;;5113019;27;20067;-81
2022/12/02 08:07:03;;;;;;;59.22;23.30;;;2.70;99.90;;;;;;5101547;27;20035;-85
2022/12/02 08:09:29;;;;;;;53.88;21.08;;;2.80;99.90;;;;;;5113148;27;20174;-81
2022/12/02 08:11:54;;;;;;;54.85;22.05;;;2.70;99.90;;;;;;5118246;27;20098;-80
2022/12/02 08:14:20;;;;;;;53.95;22.25;;;2.70;99.90;;;;;;5115951;27;20078;-79
2022/12/02 08:16:45;;;;;;;53.85;20.40;;;2.70;99.90;;;;;;5111607;27;20043;-80
2022/12/02 08:19:11;;;;;;;55.05;22.13;;;2.70;99.90;;;;;;5111598;27;20031;-80
2022/12/02 08:21:39;;;;;;;52.72;22.45;;;2.70;99.90;;;;;;5113498;28;20127;-82
2022/12/02 08:24:05;;;;;;;53.47;21.50;;;2.60;99.90;;;;;;5096191;28;20053;-80
2022/12/02 08:26:30;;;;;;;51.53;20.90;;;2.60;99.90;;;;;;5117079;28;20114;-82
2022/12/02 08:28:56;;;;;;;46.78;19.92;;;2.60;99.90;;;;;;5108159;28;20039;-80
2022/12/02 08:31:21;;;;;;;46.97;20.08;;;2.50;99.90;;;;;;5111963;27;20027;-81
2022/12/02 08:33:47;;;;;;;44.25;18.35;;;2.50;99.90;;;;;;5085895;27;20068;-81
2022/12/02 08:36:14;;;;;;;49.22;20.08;;;2.40;99.90;;;;;;5102898;28;20378;-82
2022/12/02 08:38:40;;;;;;;48.22;19.05;;;2.40;99.90;;;;;;5094726;28;20489;-81
2022/12/02 08:41:06;;;;;;;48.85;19.73;;;2.40;99.90;;;;;;5106681;27;20042;-80
2022/12/02 08:43:31;;;;;;;54.03;19.17;;;2.30;99.90;;;;;;5107647;27;20489;-83
2022/12/02 08:45:57;;;;;;;48.65;19.52;;;2.30;99.90;;;;;;5085832;28;20420;-80
2022/12/02 08:48:22;;;;;;;53.63;19.95;;;2.30;99.90;;;;;;5096610;28;20094;-80
2022/12/02 08:50:48;;;;;;;45.72;17.92;;;2.20;99.90;;;;;;5108531;28;20067;-79
2022/12/02 08:53:13;;;;;;;53.38;20.10;;;2.20;99.90;;;;;;5092232;27;20035;-80
2022/12/02 08:55:39;;;;;;;49.75;19.40;;;2.20;99.90;;;;;;5117014;28;20043;-82
2022/12/02 08:58:04;;;;;;;49.65;18.63;;;2.20;99.90;;;;;;5109704;28;20049;-81
2022/12/02 09:00:30;;;;;;;48.00;19.05;;;2.20;99.90;;;;;;5109473;28;20068;-80
2022/12/02 09:02:56;;;;;;;52.03;19.33;;;2.20;99.90;;;;;;5114488;28;20036;-83
2022/12/02 09:05:21;;;;;;;50.95;19.83;;;2.20;99.90;;;;;;5114147;28;20042;-81
2022/12/02 09:07:47;;;;;;;48.22;18.08;;;2.10;99.90;;;;;;5113358;27;20035;-82
2022/12/02 09:10:13;;;;;;;49.50;19.27;;;2.10;99.90;;;;;;5119913;27;20046;-80
2022/12/02 09:12:39;;;;;;;48.00;19.67;;;2.10;99.90;;;;;;5099755;28;20120;-80
2022/12/02 09:15:06;;;;;;;45.42;19.02;;;2.10;99.90;;;;;;5107259;28;20031;-80
2022/12/02 09:17:31;;;;;;;54.75;19.88;;;2.10;99.90;;;;;;5091630;27;20400;-83
2022/12/02 09:19:58;;;;;;;62.15;19.95;;;2.10;99.90;;;;;;5115393;27;20031;-80
2022/12/02 09:22:23;;;;;;;52.25;19.42;;;2.10;99.90;;;;;;5113661;27;20084;-83
2022/12/02 09:24:49;;;;;;;52.50;18.83;;;2.10;99.90;;;;;;5118779;27;20503;-79
2022/12/02 09:27:14;;;;;;;50.40;19.08;;;2.00;99.90;;;;;;5119476;27;20039;-83
2022/12/02 09:29:40;;;;;;;47.10;18.30;;;2.00;99.90;;;;;;5118015;27;20043;-83
2022/12/02 09:32:05;;;;;;;46.30;18.13;;;2.00;99.90;;;;;;5088899;28;20036;-81
2022/12/02 09:34:31;;;;;;;47.95;18.63;;;2.10;99.90;;;;;;5098565;27;20054;-81
2022/12/02 09:36:56;;;;;;;44.03;17.67;;;2.10;99.90;;;;;;5101998;27;20074;-82
2022/12/02 09:39:22;;;;;;;50.70;18.83;;;2.10;99.90;;;;;;5084512;27;20043;-82
2022/12/02 09:41:47;;;;;;;49.85;18.90;;;2.10;99.90;;;;;;5101298;27;20037;-83
2022/12/02 09:44:13;;;;;;;48.00;19.25;;;2.10;99.90;;;;;;5099545;27;20080;-82
2022/12/02 09:46:39;;;;;;;50.67;20.25;;;2.10;99.90;;;;;;5106734;27;20096;-85
2022/12/02 09:49:05;;;;;;;50.17;19.67;;;2.20;99.90;;;;;;5111393;27;20139;-82
2022/12/02 09:51:32;;;;;;;46.22;18.33;;;2.20;99.90;;;;;;5090020;28;20130;-85
2022/12/02 09:53:58;;;;;;;49.10;19.40;;;2.30;99.90;;;;;;5096446;28;20039;-82
2022/12/02 09:56:24;;;;;;;51.35;19.10;;;2.30;99.90;;;;;;5096927;28;20045;-84
2022/12/02 09:58:52;;;;;;;50.13;19.33;;;2.30;99.90;;;;;;5096917;28;20074;-83
2022/12/02 10:01:18;;;;;;;50.13;18.33;;;2.40;99.90;;;;;;5097230;28;20220;-83
2022/12/02 10:03:46;;;;;;;51.50;18.58;;;2.50;99.90;;;;;;5098077;28;20036;-82
2022/12/02 10:06:18;;;;;;;49.03;18.95;;;2.50;99.90;;;;;;5097927;28;20047;-83
2022/12/02 10:08:44;;;;;;;56.13;19.90;;;2.50;99.90;;;;;;5097864;28;20040;-82
2022/12/02 10:11:19;;;;;;;47.80;18.70;;;2.60;99.90;;;;;;5097975;28;20047;-82
2022/12/02 10:13:45;;;;;;;46.22;18.85;;;2.60;99.90;;;;;;5098361;28;20078;-82
2022/12/02 10:16:12;;;;;;;49.25;18.77;;;2.60;99.90;;;;;;5098415;28;20039;-83
2022/12/02 10:18:39;;;;;;;47.63;18.65;;;2.60;99.90;;;;;;5086701;27;20110;-83
2022/12/02 10:21:05;;;;;;;54.35;19.55;;;2.50;99.90;;;;;;5116982;27;20039;-82
2022/12/02 10:23:31;;;;;;;48.08;18.77;;;2.60;99.90;;;;;;5117481;27;20035;-82
2022/12/02 10:26:06;;;;;;;44.90;18.73;;;2.50;99.90;;;;;;5119021;27;20416;-82
2022/12/02 10:28:34;;;;;;;49.50;18.50;;;2.50;99.90;;;;;;5118476;27;20039;-83
2022/12/02 10:31:11;;;;;;;48.90;18.38;;;2.50;99.90;;;;;;5101152;27;20061;-82
2022/12/02 10:33:40;;;;;;;44.08;19.13;;;2.50;99.90;;;;;;5118815;27;20039;-84
2022/12/02 10:36:06;;;;;;;43.03;17.73;;;2.50;99.90;;;;;;5097973;28;20039;-83
2022/12/02 10:38:37;;;;;;;47.33;19.45;;;2.50;99.90;;;;;;5096935;28;20048;-82
2022/12/02 10:41:27;;;;;;;47.83;19.55;;;2.50;99.90;;;;;;5081662;28;20040;-83
2022/12/02 10:44:04;;;;;;;43.97;19.02;;;2.50;99.90;;;;;;5081290;28;20408;-83
2022/12/02 10:46:31;;;;;;;47.03;20.08;;;2.50;99.90;;;;;;5080759;28;20130;-82
2022/12/02 10:49:16;;;;;;;44.40;19.27;;;2.50;99.90;;;;;;5080275;28;20035;-81
2022/12/02 10:51:42;;;;;;;45.95;20.05;;;2.50;99.90;;;;;;5081033;28;20096;-81
2022/12/02 10:54:42;;;;;;;45.78;19.25;;;2.50;99.90;;;;;;5081147;28;20040;-83
2022/12/02 10:57:31;;;;;;;44.03;19.90;;;2.40;99.90;;;;;;5094431;28;20405;-83
2022/12/02 11:00:01;;;;;;;46.58;19.70;;;2.40;99.90;;;;;;5097306;28;20058;-81
2022/12/02 11:02:33;;;;;;;43.55;20.35;;;2.40;99.90;;;;;;5097516;28;20119;-84
2022/12/02 11:05:18;;;;;;;47.58;19.85;;;2.40;99.90;;;;;;5097370;28;20043;-85
2022/12/02 11:07:55;;;;;;;44.40;19.48;;;2.40;99.90;;;;;;5097326;28;20061;-82
2022/12/02 11:10:23;;;;;;;48.65;20.25;;;2.40;99.90;;;;;;5080550;28;20071;-82
2022/12/02 11:12:53;;;;;;;44.00;20.50;;;2.40;99.90;;;;;;5097774;28;20035;-83
2022/12/02 11:15:32;;;;;;;46.42;20.50;;;2.50;99.90;;;;;;5084151;27;20058;-83
2022/12/02 11:17:59;;;;;;;44.15;20.50;;;2.40;99.90;;;;;;5117698;27;20584;-85
2022/12/02 11:20:36;;;;;;;45.80;21.90;;;2.40;99.90;;;;;;5084330;28;20040;-84
2022/12/02 11:23:02;;;;;;;49.78;22.05;;;2.40;99.90;;;;;;5097335;28;20051;-84
2022/12/02 11:25:42;;;;;;;45.70;21.15;;;2.40;99.90;;;;;;5092600;28;20036;-83
2022/12/02 11:28:17;;;;;;;44.22;21.40;;;2.40;99.90;;;;;;5096922;28;20043;-84
2022/12/02 11:30:45;;;;;;;47.72;23.02;;;2.40;99.90;;;;;;5096549;28;20051;-83
2022/12/02 11:33:13;;;;;;;46.05;22.20;;;2.40;99.90;;;;;;5080388;28;20044;-81
2022/12/02 11:36:20;;;;;;;48.75;22.33;;;2.40;99.90;;;;;;5080438;28;20039;-82
2022/12/02 11:38:52;;;;;;;45.53;20.67;;;2.50;99.90;;;;;;5079336;28;20031;-83
2022/12/02 11:41:25;;;;;;;51.30;22.45;;;2.50;99.90;;;;;;5096661;28;20051;-84
2022/12/02 11:43:55;;;;;;;46.33;22.58;;;2.50;99.90;;;;;;5094677;28;20044;-85
2022/12/02 11:46:36;;;;;;;47.22;22.30;;;2.50;99.90;;;;;;5097557;28;20404;-82
2022/12/02 11:49:02;;;;;;;49.15;23.08;;;2.60;99.90;;;;;;5095353;28;20042;-83
2022/12/02 11:51:27;;;;;;;47.95;23.20;;;2.50;99.90;;;;;;5079526;28;20039;-84
2022/12/02 11:53:53;;;;;;;50.05;24.02;;;2.60;99.90;;;;;;5096652;28;20386;-83
2022/12/02 11:56:19;;;;;;;53.65;24.55;;;2.50;99.90;;;;;;5079659;28;20082;-85
2022/12/02 11:58:45;;;;;;;50.75;23.90;;;2.60;99.90;;;;;;5096492;28;20050;-84
2022/12/02 12:01:19;;;;;;;50.10;23.88;;;2.60;99.90;;;;;;5080494;28;20047;-83
2022/12/02 12:03:49;;;;;;;50.58;24.05;;;2.60;99.90;;;;;;5096351;28;20075;-84
2022/12/02 12:06:21;;;;;;;45.05;22.42;;;2.60;99.90;;;;;;5096763;28;20397;-82
2022/12/02 12:08:49;;;;;;;49.20;23.95;;;2.50;99.90;;;;;;5079670;28;20369;-82
2022/12/02 12:11:31;;;;;;;45.03;23.60;;;2.50;99.90;;;;;;5096263;28;20461;-82
2022/12/02 12:14:12;;;;;;;46.15;23.08;;;2.50;99.90;;;;;;5096471;28;20134;-85
2022/12/02 12:16:41;;;;;;;48.67;23.83;;;2.50;99.90;;;;;;5113179;27;20096;-82
2022/12/02 12:19:12;;;;;;;44.92;23.27;;;2.50;99.90;;;;;;5099955;27;20072;-82
2022/12/02 12:21:43;;;;;;;47.85;22.92;;;2.50;99.90;;;;;;5080627;28;20036;-84
2022/12/02 12:24:19;;;;;;;43.78;22.10;;;2.50;99.90;;;;;;5079293;28;20036;-83
2022/12/02 12:26:52;;;;;;;48.88;23.60;;;2.40;99.90;;;;;;5095403;28;20063;-84
2022/12/02 12:29:20;;;;;;;48.28;23.52;;;2.50;99.90;;;;;;5078556;28;20175;-84
2022/12/02 12:31:46;;;;;;;49.20;23.98;;;2.50;99.90;;;;;;5096039;28;20122;-82
2022/12/02 12:34:15;;;;;;;47.50;23.75;;;2.40;99.90;;;;;;5096259;28;20144;-85
2022/12/02 12:36:41;;;;;;;47.13;22.50;;;2.40;99.90;;;;;;5096154;28;20043;-86
2022/12/02 12:39:08;;;;;;;47.00;23.70;;;2.40;99.90;;;;;;5097323;28;20409;-82
2022/12/02 12:41:34;;;;;;;41.80;21.30;;;2.50;99.90;;;;;;5096572;28;20069;-85
2022/12/02 12:43:59;;;;;;;45.38;22.63;;;2.50;99.90;;;;;;5105474;28;20031;-82
2022/12/02 12:46:25;;;;;;;45.63;22.05;;;2.50;99.90;;;;;;5112946;27;20027;-83
2022/12/02 12:48:50;;;;;;;45.20;21.67;;;2.50;99.90;;;;;;5097567;27;20047;-83